Metsäpalo Alkaa: 25-04-2019 08:00 Päättyy: 26-04-2019 07:00 Varoitus: Metsäpalo Taso: Keltainen info button
suomi:
Ruohikkopalovaara: Ruohikkopalojen vaara on suuri.

svenska:
Risk för gräsbrand: Faran för gräsbränder är stor.

english:
Grass fire warning: The risk for grass fires is high. 


Webkamera Lisätietoa Webcam


Yksityisiä sääasemia lähellä:

Sääasema Juupajoki

Sääasema Orivesi

Sääasema Muurame

Sääasema Jyväskylä

Sääasema Vihtavuori


Löydät sääaseman tiedot myös:

Finland Weather Exchange

European Weather Network

Weather Underground

AWEKAS



Säätiedot lähimmiltä METAR asemilta

   
EFHA - Halli (Fin-Afb), Finland
Etäisyys asemalta: Kaakko 25 km
Päivitetty: 25.04.2019 11:20
Selkeää  
Selkeää  
   Tuuli: Kaakko 3.6 m/s
Tuuli: Kaakko 3.6 m/s
Lämpötila: 17°C
Kastepiste: -2°C
Kosteus: 27%
Ilmanpaine: 1025 hPa
Näkyvyys: Enemmän kuin 10 km
Pilvitiedot: Selkeää
EFHA 250820Z 13007KT CAVOK 17/M02 Q1025
EFJY - Jyvaskyla (Mil/Civ), Finland
Etäisyys asemalta: Koillinen 75 km
Päivitetty: 25.04.2019 11:20
Selkeää  
Selkeää  
   Tuuli: Eteläkaakko 2.1 m/s
Tuuli: Eteläkaakko 2.1 m/s
Lämpötila: 16°C
Kastepiste: -1°C
Kosteus: 31%
Ilmanpaine: 1025 hPa
Näkyvyys: Enemmän kuin 10 km
Pilvitiedot: Selkeää
EFJY 250820Z AUTO 15004KT 110V200 CAVOK 16/M01 Q1025
EFTP - Tampere/Pirkkala, Finland
Etäisyys asemalta: Lounas 81 km
Päivitetty: 25.04.2019 11:20
Selkeää  
Selkeää  
   Tuuli: Kaakko 3.6 m/s
Tuuli: Kaakko 3.6 m/s
Lämpötila: 18°C
Kastepiste: -1°C
Kosteus: 28%
Ilmanpaine: 1025 hPa
Näkyvyys: Enemmän kuin 10 km
Pilvitiedot: Selkeää
EFTP 250820Z 13007KT 090V160 CAVOK 18/M01 Q1025
EFSI - Seinajoki-Ilmajoki, Finland
Etäisyys asemalta: Luode 114 km
Päivitetty: 25.04.2019 11:20
Selkeää  
Selkeää  
   Tuuli: Kaakko 3.1 m/s
Tuuli: Kaakko 3.1 m/s
Lämpötila: 18°C
Kastepiste: -1°C
Kosteus: 28%
Ilmanpaine: 1024 hPa
Näkyvyys: Enemmän kuin 10 km
Pilvitiedot: Selkeää
EFSI 250820Z AUTO 13006KT CAVOK 18/M01 Q1024
EFMI - Mikkeli, Finland
Etäisyys asemalta: Itäkaakko 147 km
Päivitetty: 25.04.2019 11:20
Selkeää  
Selkeää  
   Tuuli: Vaihtelee 0.5 m/s
Tuuli: Vaihtelee 0.5 m/s
Lämpötila: 16°C
Kastepiste: 4°C
Kosteus: 45%
Ilmanpaine: 1025 hPa
Näkyvyys: Enemmän kuin 10 km
Pilvitiedot: Selkeää
EFMI 250820Z AUTO VRB01KT CAVOK 16/04 Q1025
EFPO - Pori (Mil/Civ), Finland
Etäisyys asemalta: Länsilounas 154 km
Päivitetty: 25.04.2019 11:20
Vähäistä pilvisyyttä  
Vähäistä pilvisyyttä  
   Tuuli: Itäkaakko 4.6 m/s
Tuuli: Itäkaakko 4.6 m/s
Lämpötila: 19°C
Kastepiste: 0°C
Kosteus: 28%
Ilmanpaine: 1023 hPa
Pilvisyys: Vähäistä pilvisyyttä
Näkyvyys: Enemmän kuin 10 km
Pilvitiedot: Vähäistä pilvisyyttä 3048 m
EFPO 250820Z AUTO 12009KT 080V140 9999 FEW100/// 19/M00 Q1023
EFUT - Utti (Fin-Afb), Finland
Etäisyys asemalta: Kaakko 180 km
Päivitetty: 25.04.2019 11:20
Selkeää  
Selkeää  
   Tuuli: Itäkaakko 2.6 m/s
Tuuli: Itäkaakko 2.6 m/s
Lämpötila: 18°C
Kastepiste: -1°C
Kosteus: 28%
Ilmanpaine: 1025 hPa
Näkyvyys: Enemmän kuin 10 km
Pilvitiedot: Selkeää
EFUT 250820Z 12005KT 040V160 CAVOK 18/M01 Q1025
EFVA - Vaasa, Finland
Etäisyys asemalta: Luode 180 km
Päivitetty: 25.04.2019 11:20
Selkeää  
Selkeää  
   Tuuli: Itäkaakko 3.1 m/s
Tuuli: Itäkaakko 3.1 m/s
Lämpötila: 18°C
Kastepiste: 1°C
Kosteus: 32%
Ilmanpaine: 1024 hPa
Näkyvyys: Enemmän kuin 10 km
Pilvitiedot: Selkeää
EFVA 250820Z AUTO 11006KT 080V140 CAVOK 18/01 Q1024
EFHK - Helsinki/Vantaa, Finland
Etäisyys asemalta: Etelä 191 km
Päivitetty: 25.04.2019 11:20
Selkeää  
Selkeää  
   Tuuli: Itä 5.7 m/s
Tuuli: Itä 5.7 m/s
Lämpötila: 19°C
Kastepiste: -1°C
Kosteus: 26%
Ilmanpaine: 1023 hPa
Näkyvyys: Enemmän kuin 10 km
Pilvitiedot: Selkeää
EFHK 250820Z 09011KT CAVOK 19/M01 Q1023 NOSIG

Alkuperäinen skripti  Saratoga-weather.org Sovitettu myös templatelle  Weerstation Leuven

Laitteet joita käytämme:

Sääasema
Davis VP2

Sääasemaohjelma
Cumulus

Sääaseman palvelin
HP ProBook 6460b

Palveluntarjoaja
Radicenter

Davis VP2

Cumulus

HP ProBook 6460b

Radicenter




Flag Counter Cumulus Top Weather Sites